sensor_id;sensor_type;location;lat;lon;timestamp;temperature;humidity
152;DHT22;68;48.792;9.164;2024-02-14T00:00:20;4.30;96.80
152;DHT22;68;48.792;9.164;2024-02-14T00:02:46;4.40;97.20
152;DHT22;68;48.792;9.164;2024-02-14T00:05:14;4.40;94.80
152;DHT22;68;48.792;9.164;2024-02-14T00:07:42;4.40;96.40
152;DHT22;68;48.792;9.164;2024-02-14T00:10:10;4.30;96.00
152;DHT22;68;48.792;9.164;2024-02-14T00:12:37;4.30;96.20
152;DHT22;68;48.792;9.164;2024-02-14T00:15:04;4.50;96.20
152;DHT22;68;48.792;9.164;2024-02-14T00:17:32;4.50;96.20
152;DHT22;68;48.792;9.164;2024-02-14T00:20:00;4.50;97.10
152;DHT22;68;48.792;9.164;2024-02-14T00:22:27;4.30;97.40
152;DHT22;68;48.792;9.164;2024-02-14T00:24:53;4.30;97.40
152;DHT22;68;48.792;9.164;2024-02-14T00:27:21;4.40;97.10
152;DHT22;68;48.792;9.164;2024-02-14T00:29:49;4.40;97.10
152;DHT22;68;48.792;9.164;2024-02-14T00:32:16;4.60;96.30
152;DHT22;68;48.792;9.164;2024-02-14T00:34:43;4.60;96.40
152;DHT22;68;48.792;9.164;2024-02-14T00:37:11;4.60;96.80
152;DHT22;68;48.792;9.164;2024-02-14T00:39:38;4.60;97.20
152;DHT22;68;48.792;9.164;2024-02-14T00:42:04;4.70;96.50
152;DHT22;68;48.792;9.164;2024-02-14T00:44:33;4.80;96.30
152;DHT22;68;48.792;9.164;2024-02-14T00:46:59;4.90;96.40
152;DHT22;68;48.792;9.164;2024-02-14T00:49:27;5.00;96.30
152;DHT22;68;48.792;9.164;2024-02-14T00:51:54;5.20;96.90
152;DHT22;68;48.792;9.164;2024-02-14T00:54:21;5.10;95.70
152;DHT22;68;48.792;9.164;2024-02-14T00:56:48;5.10;96.40
152;DHT22;68;48.792;9.164;2024-02-14T00:59:15;5.00;96.10
152;DHT22;68;48.792;9.164;2024-02-14T01:01:43;5.00;96.10
152;DHT22;68;48.792;9.164;2024-02-14T01:04:10;5.00;96.30
152;DHT22;68;48.792;9.164;2024-02-14T01:06:37;5.10;96.10
152;DHT22;68;48.792;9.164;2024-02-14T01:09:03;5.20;96.60
152;DHT22;68;48.792;9.164;2024-02-14T01:11:30;5.20;96.00
152;DHT22;68;48.792;9.164;2024-02-14T01:13:57;5.20;96.40
152;DHT22;68;48.792;9.164;2024-02-14T01:16:24;5.10;96.20
152;DHT22;68;48.792;9.164;2024-02-14T01:18:53;5.10;97.00
152;DHT22;68;48.792;9.164;2024-02-14T01:21:20;5.30;96.60
152;DHT22;68;48.792;9.164;2024-02-14T01:23:47;5.20;97.10
152;DHT22;68;48.792;9.164;2024-02-14T01:26:14;5.30;96.40
152;DHT22;68;48.792;9.164;2024-02-14T01:28:41;5.60;95.80
152;DHT22;68;48.792;9.164;2024-02-14T01:31:10;5.60;96.50
152;DHT22;68;48.792;9.164;2024-02-14T01:33:38;5.60;95.80
152;DHT22;68;48.792;9.164;2024-02-14T01:36:07;5.50;95.80
152;DHT22;68;48.792;9.164;2024-02-14T01:38:33;5.50;96.50
152;DHT22;68;48.792;9.164;2024-02-14T01:41:01;5.50;95.90
152;DHT22;68;48.792;9.164;2024-02-14T01:43:29;5.60;95.50
152;DHT22;68;48.792;9.164;2024-02-14T01:45:58;5.90;97.10
152;DHT22;68;48.792;9.164;2024-02-14T01:48:29;5.70;96.50
152;DHT22;68;48.792;9.164;2024-02-14T01:50:57;5.50;96.30
152;DHT22;68;48.792;9.164;2024-02-14T01:53:25;5.50;95.90
152;DHT22;68;48.792;9.164;2024-02-14T01:55:55;5.50;96.10
152;DHT22;68;48.792;9.164;2024-02-14T01:58:22;5.60;94.30
152;DHT22;68;48.792;9.164;2024-02-14T02:00:50;6.00;96.20
152;DHT22;68;48.792;9.164;2024-02-14T02:03:21;6.20;96.30
152;DHT22;68;48.792;9.164;2024-02-14T02:05:49;6.50;96.40
152;DHT22;68;48.792;9.164;2024-02-14T02:08:15;6.60;96.90
152;DHT22;68;48.792;9.164;2024-02-14T02:10:43;6.50;96.40
152;DHT22;68;48.792;9.164;2024-02-14T02:13:10;6.60;96.30
152;DHT22;68;48.792;9.164;2024-02-14T02:15:37;6.30;96.20
152;DHT22;68;48.792;9.164;2024-02-14T02:18:04;6.40;96.60
152;DHT22;68;48.792;9.164;2024-02-14T02:20:32;6.60;96.70
152;DHT22;68;48.792;9.164;2024-02-14T02:23:00;6.70;96.30
152;DHT22;68;48.792;9.164;2024-02-14T02:25:27;6.60;96.60
152;DHT22;68;48.792;9.164;2024-02-14T02:27:54;6.50;96.20
152;DHT22;68;48.792;9.164;2024-02-14T02:30:22;6.70;96.40
152;DHT22;68;48.792;9.164;2024-02-14T02:32:49;6.50;96.40
152;DHT22;68;48.792;9.164;2024-02-14T02:35:17;6.70;96.60
152;DHT22;68;48.792;9.164;2024-02-14T02:37:46;6.80;96.80
152;DHT22;68;48.792;9.164;2024-02-14T02:40:17;7.20;95.60
152;DHT22;68;48.792;9.164;2024-02-14T02:42:44;7.40;94.50
152;DHT22;68;48.792;9.164;2024-02-14T02:45:11;7.50;94.00
152;DHT22;68;48.792;9.164;2024-02-14T02:47:38;7.60;93.50
152;DHT22;68;48.792;9.164;2024-02-14T02:50:05;7.50;94.10
152;DHT22;68;48.792;9.164;2024-02-14T02:52:33;7.60;93.80
152;DHT22;68;48.792;9.164;2024-02-14T02:55:00;7.50;93.80
152;DHT22;68;48.792;9.164;2024-02-14T02:57:28;7.60;92.70
152;DHT22;68;48.792;9.164;2024-02-14T02:59:57;7.50;92.60
152;DHT22;68;48.792;9.164;2024-02-14T03:02:24;7.50;92.50
152;DHT22;68;48.792;9.164;2024-02-14T03:04:51;7.30;93.00
152;DHT22;68;48.792;9.164;2024-02-14T03:07:19;7.10;94.20
152;DHT22;68;48.792;9.164;2024-02-14T03:09:46;7.10;93.30
152;DHT22;68;48.792;9.164;2024-02-14T03:12:12;7.00;93.20
152;DHT22;68;48.792;9.164;2024-02-14T03:14:43;7.00;93.10
152;DHT22;68;48.792;9.164;2024-02-14T03:17:10;6.80;93.30
152;DHT22;68;48.792;9.164;2024-02-14T03:19:37;7.00;92.70
152;DHT22;68;48.792;9.164;2024-02-14T03:22:04;7.00;91.90
152;DHT22;68;48.792;9.164;2024-02-14T03:24:34;7.10;92.30
152;DHT22;68;48.792;9.164;2024-02-14T03:27:02;7.20;91.70
152;DHT22;68;48.792;9.164;2024-02-14T03:29:31;7.20;91.70
152;DHT22;68;48.792;9.164;2024-02-14T03:31:59;7.10;92.60
152;DHT22;68;48.792;9.164;2024-02-14T03:34:30;7.00;93.00
152;DHT22;68;48.792;9.164;2024-02-14T03:36:59;7.10;92.30
152;DHT22;68;48.792;9.164;2024-02-14T03:39:26;7.20;92.00
152;DHT22;68;48.792;9.164;2024-02-14T03:41:53;7.40;91.30
152;DHT22;68;48.792;9.164;2024-02-14T03:44:21;7.50;90.10
152;DHT22;68;48.792;9.164;2024-02-14T03:46:48;7.50;90.50
152;DHT22;68;48.792;9.164;2024-02-14T03:49:16;7.50;90.90
152;DHT22;68;48.792;9.164;2024-02-14T03:51:43;7.50;90.70
152;DHT22;68;48.792;9.164;2024-02-14T03:54:10;7.50;90.80
152;DHT22;68;48.792;9.164;2024-02-14T03:56:37;7.60;90.30
152;DHT22;68;48.792;9.164;2024-02-14T03:59:04;7.60;90.70
152;DHT22;68;48.792;9.164;2024-02-14T04:01:33;7.40;90.90
152;DHT22;68;48.792;9.164;2024-02-14T04:04:00;7.40;91.70
152;DHT22;68;48.792;9.164;2024-02-14T04:06:28;7.30;91.70
152;DHT22;68;48.792;9.164;2024-02-14T04:08:57;7.40;92.10
152;DHT22;68;48.792;9.164;2024-02-14T04:11:24;7.50;90.80
152;DHT22;68;48.792;9.164;2024-02-14T04:13:51;7.60;90.80
152;DHT22;68;48.792;9.164;2024-02-14T04:16:19;7.40;91.70
152;DHT22;68;48.792;9.164;2024-02-14T04:18:46;7.30;92.30
152;DHT22;68;48.792;9.164;2024-02-14T04:21:13;7.40;91.70
152;DHT22;68;48.792;9.164;2024-02-14T04:23:42;7.10;91.50
152;DHT22;68;48.792;9.164;2024-02-14T04:26:08;6.60;93.50
152;DHT22;68;48.792;9.164;2024-02-14T04:28:35;6.50;94.20
152;DHT22;68;48.792;9.164;2024-02-14T04:31:02;6.80;94.20
152;DHT22;68;48.792;9.164;2024-02-14T04:33:29;6.40;94.10
152;DHT22;68;48.792;9.164;2024-02-14T04:35:56;6.60;94.70
152;DHT22;68;48.792;9.164;2024-02-14T04:38:22;6.70;94.10
152;DHT22;68;48.792;9.164;2024-02-14T04:40:51;6.90;93.40
152;DHT22;68;48.792;9.164;2024-02-14T04:43:17;6.90;92.60
152;DHT22;68;48.792;9.164;2024-02-14T04:45:45;6.90;92.60
152;DHT22;68;48.792;9.164;2024-02-14T04:48:12;7.10;91.60
152;DHT22;68;48.792;9.164;2024-02-14T04:50:39;7.10;91.80
152;DHT22;68;48.792;9.164;2024-02-14T04:53:05;7.10;90.60
152;DHT22;68;48.792;9.164;2024-02-14T04:55:33;7.20;90.40
152;DHT22;68;48.792;9.164;2024-02-14T04:58:01;7.30;89.70
152;DHT22;68;48.792;9.164;2024-02-14T05:00:27;7.50;88.50
152;DHT22;68;48.792;9.164;2024-02-14T05:02:54;7.60;88.50
152;DHT22;68;48.792;9.164;2024-02-14T05:05:22;7.70;87.80
152;DHT22;68;48.792;9.164;2024-02-14T05:07:49;7.80;87.80
152;DHT22;68;48.792;9.164;2024-02-14T05:10:16;7.70;88.30
152;DHT22;68;48.792;9.164;2024-02-14T05:12:42;7.70;87.50
152;DHT22;68;48.792;9.164;2024-02-14T05:15:11;7.70;87.80
152;DHT22;68;48.792;9.164;2024-02-14T05:17:38;7.70;87.20
152;DHT22;68;48.792;9.164;2024-02-14T05:20:06;7.70;87.50
152;DHT22;68;48.792;9.164;2024-02-14T05:22:35;7.80;86.60
152;DHT22;68;48.792;9.164;2024-02-14T05:25:02;7.70;86.80
152;DHT22;68;48.792;9.164;2024-02-14T05:27:29;7.70;86.30
152;DHT22;68;48.792;9.164;2024-02-14T05:29:56;7.80;86.50
152;DHT22;68;48.792;9.164;2024-02-14T05:32:24;7.80;85.90
152;DHT22;68;48.792;9.164;2024-02-14T05:34:51;7.80;85.30
152;DHT22;68;48.792;9.164;2024-02-14T05:37:18;7.40;87.30
152;DHT22;68;48.792;9.164;2024-02-14T05:39:44;7.20;88.80
152;DHT22;68;48.792;9.164;2024-02-14T05:42:11;7.30;87.10
152;DHT22;68;48.792;9.164;2024-02-14T05:44:38;7.30;87.90
152;DHT22;68;48.792;9.164;2024-02-14T05:47:06;7.40;87.40
152;DHT22;68;48.792;9.164;2024-02-14T05:49:34;7.60;87.20
152;DHT22;68;48.792;9.164;2024-02-14T05:52:00;7.70;86.90
152;DHT22;68;48.792;9.164;2024-02-14T05:54:27;7.60;86.60
152;DHT22;68;48.792;9.164;2024-02-14T05:56:54;7.70;86.60
152;DHT22;68;48.792;9.164;2024-02-14T05:59:22;7.70;86.50
152;DHT22;68;48.792;9.164;2024-02-14T06:01:49;7.70;87.00
152;DHT22;68;48.792;9.164;2024-02-14T06:04:16;7.70;87.10
152;DHT22;68;48.792;9.164;2024-02-14T06:06:44;7.80;87.10
152;DHT22;68;48.792;9.164;2024-02-14T06:09:11;7.90;86.70
152;DHT22;68;48.792;9.164;2024-02-14T06:11:38;7.80;86.50
152;DHT22;68;48.792;9.164;2024-02-14T06:14:05;7.70;86.50
152;DHT22;68;48.792;9.164;2024-02-14T06:16:32;7.50;87.60
152;DHT22;68;48.792;9.164;2024-02-14T06:18:59;7.60;88.00
152;DHT22;68;48.792;9.164;2024-02-14T06:21:26;7.70;87.00
152;DHT22;68;48.792;9.164;2024-02-14T06:23:54;7.80;86.90
152;DHT22;68;48.792;9.164;2024-02-14T06:26:21;7.80;86.90
152;DHT22;68;48.792;9.164;2024-02-14T06:28:47;7.70;87.20
152;DHT22;68;48.792;9.164;2024-02-14T06:31:19;7.80;87.10
152;DHT22;68;48.792;9.164;2024-02-14T06:33:46;7.40;88.20
152;DHT22;68;48.792;9.164;2024-02-14T06:36:13;7.30;90.60
152;DHT22;68;48.792;9.164;2024-02-14T06:38:39;7.20;90.50
152;DHT22;68;48.792;9.164;2024-02-14T06:41:08;7.50;88.70
152;DHT22;68;48.792;9.164;2024-02-14T06:43:34;7.30;88.70
152;DHT22;68;48.792;9.164;2024-02-14T06:46:03;7.20;90.10
152;DHT22;68;48.792;9.164;2024-02-14T06:48:30;7.10;90.30
152;DHT22;68;48.792;9.164;2024-02-14T06:50:57;7.20;89.30
152;DHT22;68;48.792;9.164;2024-02-14T06:53:24;7.30;89.50
152;DHT22;68;48.792;9.164;2024-02-14T06:55:50;7.10;89.80
152;DHT22;68;48.792;9.164;2024-02-14T06:58:19;7.30;89.20
152;DHT22;68;48.792;9.164;2024-02-14T07:00:45;7.60;88.10
152;DHT22;68;48.792;9.164;2024-02-14T07:03:12;7.60;87.70
152;DHT22;68;48.792;9.164;2024-02-14T07:05:39;7.60;87.00
152;DHT22;68;48.792;9.164;2024-02-14T07:08:07;7.70;87.30
152;DHT22;68;48.792;9.164;2024-02-14T07:10:34;7.60;87.90
152;DHT22;68;48.792;9.164;2024-02-14T07:13:00;7.70;87.90
152;DHT22;68;48.792;9.164;2024-02-14T07:15:29;7.90;87.30
152;DHT22;68;48.792;9.164;2024-02-14T07:17:55;8.20;85.70
152;DHT22;68;48.792;9.164;2024-02-14T07:20:24;7.80;86.20
152;DHT22;68;48.792;9.164;2024-02-14T07:22:51;7.20;87.90
152;DHT22;68;48.792;9.164;2024-02-14T07:25:19;7.40;89.70
152;DHT22;68;48.792;9.164;2024-02-14T07:27:46;7.40;88.60
152;DHT22;68;48.792;9.164;2024-02-14T07:30:15;7.10;89.10
152;DHT22;68;48.792;9.164;2024-02-14T07:32:43;7.00;90.90
152;DHT22;68;48.792;9.164;2024-02-14T07:35:10;7.00;90.60
152;DHT22;68;48.792;9.164;2024-02-14T07:37:38;7.00;90.60
152;DHT22;68;48.792;9.164;2024-02-14T07:40:06;7.10;90.60
152;DHT22;68;48.792;9.164;2024-02-14T07:42:33;7.30;90.90
152;DHT22;68;48.792;9.164;2024-02-14T07:45:00;7.30;90.50
152;DHT22;68;48.792;9.164;2024-02-14T07:47:28;7.30;90.40
152;DHT22;68;48.792;9.164;2024-02-14T07:49:57;7.30;90.90
152;DHT22;68;48.792;9.164;2024-02-14T07:52:24;7.40;90.90
152;DHT22;68;48.792;9.164;2024-02-14T07:54:52;7.70;89.80
152;DHT22;68;48.792;9.164;2024-02-14T07:57:19;7.90;89.80
152;DHT22;68;48.792;9.164;2024-02-14T07:59:46;8.00;88.80
152;DHT22;68;48.792;9.164;2024-02-14T08:02:12;8.20;88.80
152;DHT22;68;48.792;9.164;2024-02-14T08:04:39;8.40;88.10
152;DHT22;68;48.792;9.164;2024-02-14T08:07:09;8.70;86.40
152;DHT22;68;48.792;9.164;2024-02-14T08:09:35;8.80;86.40
152;DHT22;68;48.792;9.164;2024-02-14T08:12:04;8.80;87.00
152;DHT22;68;48.792;9.164;2024-02-14T08:14:32;9.00;85.60
152;DHT22;68;48.792;9.164;2024-02-14T08:16:59;8.90;86.00
152;DHT22;68;48.792;9.164;2024-02-14T08:19:25;9.00;86.30
152;DHT22;68;48.792;9.164;2024-02-14T08:21:52;8.80;87.00
152;DHT22;68;48.792;9.164;2024-02-14T08:24:24;8.80;87.10
152;DHT22;68;48.792;9.164;2024-02-14T08:26:51;8.90;86.10
152;DHT22;68;48.792;9.164;2024-02-14T08:29:18;9.10;85.60
152;DHT22;68;48.792;9.164;2024-02-14T08:31:45;9.10;85.70
152;DHT22;68;48.792;9.164;2024-02-14T08:34:12;9.10;85.20
152;DHT22;68;48.792;9.164;2024-02-14T08:36:39;9.10;85.60
152;DHT22;68;48.792;9.164;2024-02-14T08:39:07;9.50;84.50
152;DHT22;68;48.792;9.164;2024-02-14T08:41:36;9.70;83.20
152;DHT22;68;48.792;9.164;2024-02-14T08:44:02;9.90;82.80
152;DHT22;68;48.792;9.164;2024-02-14T08:46:30;10.10;81.60
152;DHT22;68;48.792;9.164;2024-02-14T08:48:57;10.30;81.40
152;DHT22;68;48.792;9.164;2024-02-14T08:51:24;10.50;80.30
152;DHT22;68;48.792;9.164;2024-02-14T08:53:51;10.50;80.00
152;DHT22;68;48.792;9.164;2024-02-14T08:56:20;10.60;79.70
152;DHT22;68;48.792;9.164;2024-02-14T08:58:49;10.50;80.30
152;DHT22;68;48.792;9.164;2024-02-14T09:01:15;10.60;80.50
152;DHT22;68;48.792;9.164;2024-02-14T09:03:42;10.80;79.80
152;DHT22;68;48.792;9.164;2024-02-14T09:06:12;10.70;80.50
152;DHT22;68;48.792;9.164;2024-02-14T09:08:39;10.60;80.50
152;DHT22;68;48.792;9.164;2024-02-14T09:11:07;10.50;81.10
152;DHT22;68;48.792;9.164;2024-02-14T09:13:34;10.50;81.60
152;DHT22;68;48.792;9.164;2024-02-14T09:16:02;10.60;79.90
152;DHT22;68;48.792;9.164;2024-02-14T09:18:31;10.70;80.60
152;DHT22;68;48.792;9.164;2024-02-14T09:20:58;10.90;81.00
152;DHT22;68;48.792;9.164;2024-02-14T09:23:25;11.10;80.00
152;DHT22;68;48.792;9.164;2024-02-14T09:25:51;11.20;80.10
152;DHT22;68;48.792;9.164;2024-02-14T09:28:20;11.20;79.40
152;DHT22;68;48.792;9.164;2024-02-14T09:30:47;11.10;79.60
152;DHT22;68;48.792;9.164;2024-02-14T09:33:15;10.90;80.80
152;DHT22;68;48.792;9.164;2024-02-14T09:35:41;11.00;80.90
152;DHT22;68;48.792;9.164;2024-02-14T09:38:10;11.20;80.70
152;DHT22;68;48.792;9.164;2024-02-14T09:40:38;11.30;79.40
152;DHT22;68;48.792;9.164;2024-02-14T09:43:06;11.50;79.10
152;DHT22;68;48.792;9.164;2024-02-14T09:45:37;11.40;78.90
152;DHT22;68;48.792;9.164;2024-02-14T09:48:07;11.60;79.40
152;DHT22;68;48.792;9.164;2024-02-14T09:50:37;11.80;78.80
152;DHT22;68;48.792;9.164;2024-02-14T09:53:04;11.80;78.60
152;DHT22;68;48.792;9.164;2024-02-14T09:55:32;11.70;78.50
152;DHT22;68;48.792;9.164;2024-02-14T09:58:00;11.50;80.10
152;DHT22;68;48.792;9.164;2024-02-14T10:00:31;11.50;80.10
152;DHT22;68;48.792;9.164;2024-02-14T10:02:58;11.50;80.20
152;DHT22;68;48.792;9.164;2024-02-14T10:05:25;11.70;79.90
152;DHT22;68;48.792;9.164;2024-02-14T10:07:56;11.90;80.00
152;DHT22;68;48.792;9.164;2024-02-14T10:10:23;12.10;79.00
152;DHT22;68;48.792;9.164;2024-02-14T10:12:50;12.00;79.60
152;DHT22;68;48.792;9.164;2024-02-14T10:15:17;12.10;79.70
152;DHT22;68;48.792;9.164;2024-02-14T10:17:44;12.10;79.00
152;DHT22;68;48.792;9.164;2024-02-14T10:20:11;12.10;80.00
152;DHT22;68;48.792;9.164;2024-02-14T10:22:38;12.20;80.40
152;DHT22;68;48.792;9.164;2024-02-14T10:25:07;12.30;80.00
152;DHT22;68;48.792;9.164;2024-02-14T10:27:36;12.40;80.00
152;DHT22;68;48.792;9.164;2024-02-14T10:30:04;12.40;80.50
152;DHT22;68;48.792;9.164;2024-02-14T10:32:33;12.40;81.00
152;DHT22;68;48.792;9.164;2024-02-14T10:35:04;12.30;81.90
152;DHT22;68;48.792;9.164;2024-02-14T10:37:31;12.40;82.40
152;DHT22;68;48.792;9.164;2024-02-14T10:40:01;12.80;81.50
152;DHT22;68;48.792;9.164;2024-02-14T10:42:30;13.20;80.00
152;DHT22;68;48.792;9.164;2024-02-14T10:44:57;13.40;79.90
152;DHT22;68;48.792;9.164;2024-02-14T10:47:29;13.70;78.80
152;DHT22;68;48.792;9.164;2024-02-14T10:49:58;13.70;78.40
152;DHT22;68;48.792;9.164;2024-02-14T10:52:30;13.70;79.00
152;DHT22;68;48.792;9.164;2024-02-14T10:55:01;13.90;77.90
152;DHT22;68;48.792;9.164;2024-02-14T10:57:29;14.00;78.00
152;DHT22;68;48.792;9.164;2024-02-14T10:59:57;13.90;78.30
152;DHT22;68;48.792;9.164;2024-02-14T11:02:26;13.90;78.00
152;DHT22;68;48.792;9.164;2024-02-14T11:04:55;13.90;78.40
152;DHT22;68;48.792;9.164;2024-02-14T11:07:22;13.30;80.30
152;DHT22;68;48.792;9.164;2024-02-14T11:10:00;13.50;80.70
152;DHT22;68;48.792;9.164;2024-02-14T11:12:32;14.00;78.80
152;DHT22;68;48.792;9.164;2024-02-14T11:15:00;14.20;78.50
152;DHT22;68;48.792;9.164;2024-02-14T11:17:29;14.20;78.40
152;DHT22;68;48.792;9.164;2024-02-14T11:19:56;13.70;79.90
152;DHT22;68;48.792;9.164;2024-02-14T11:22:23;13.40;81.80
152;DHT22;68;48.792;9.164;2024-02-14T11:24:51;13.20;82.20
152;DHT22;68;48.792;9.164;2024-02-14T11:27:18;13.10;82.80
152;DHT22;68;48.792;9.164;2024-02-14T11:29:52;13.40;82.60
152;DHT22;68;48.792;9.164;2024-02-14T11:32:22;13.40;82.30
152;DHT22;68;48.792;9.164;2024-02-14T11:34:53;13.40;82.70
152;DHT22;68;48.792;9.164;2024-02-14T11:37:27;13.10;83.70
152;DHT22;68;48.792;9.164;2024-02-14T11:39:54;13.10;83.80
152;DHT22;68;48.792;9.164;2024-02-14T11:42:22;13.30;83.50
152;DHT22;68;48.792;9.164;2024-02-14T11:44:49;13.30;83.10
152;DHT22;68;48.792;9.164;2024-02-14T11:47:17;13.10;83.50
152;DHT22;68;48.792;9.164;2024-02-14T11:49:44;13.00;84.30
152;DHT22;68;48.792;9.164;2024-02-14T11:52:12;12.90;85.40
152;DHT22;68;48.792;9.164;2024-02-14T11:54:39;12.70;86.00
152;DHT22;68;48.792;9.164;2024-02-14T11:57:06;12.80;85.40
152;DHT22;68;48.792;9.164;2024-02-14T11:59:34;12.90;85.30
152;DHT22;68;48.792;9.164;2024-02-14T12:02:01;12.90;85.60
152;DHT22;68;48.792;9.164;2024-02-14T12:04:30;13.20;84.50
152;DHT22;68;48.792;9.164;2024-02-14T12:06:57;13.00;85.60
152;DHT22;68;48.792;9.164;2024-02-14T12:09:24;13.40;84.10
152;DHT22;68;48.792;9.164;2024-02-14T12:11:51;13.60;83.70
152;DHT22;68;48.792;9.164;2024-02-14T12:14:18;13.70;83.20
152;DHT22;68;48.792;9.164;2024-02-14T12:16:50;13.70;82.70
152;DHT22;68;48.792;9.164;2024-02-14T12:19:17;14.30;81.20
152;DHT22;68;48.792;9.164;2024-02-14T12:21:45;14.70;80.20
152;DHT22;68;48.792;9.164;2024-02-14T12:24:14;15.50;78.50
152;DHT22;68;48.792;9.164;2024-02-14T12:26:41;16.80;74.70
152;DHT22;68;48.792;9.164;2024-02-14T12:29:11;17.00;72.50
152;DHT22;68;48.792;9.164;2024-02-14T12:31:38;16.50;74.10
152;DHT22;68;48.792;9.164;2024-02-14T12:34:05;15.60;75.70
152;DHT22;68;48.792;9.164;2024-02-14T12:36:33;15.10;78.30
152;DHT22;68;48.792;9.164;2024-02-14T12:39:01;15.00;78.80
152;DHT22;68;48.792;9.164;2024-02-14T12:41:29;15.30;77.30
152;DHT22;68;48.792;9.164;2024-02-14T12:43:56;15.40;77.00
152;DHT22;68;48.792;9.164;2024-02-14T12:46:23;15.30;77.50
152;DHT22;68;48.792;9.164;2024-02-14T12:48:49;15.30;77.70
152;DHT22;68;48.792;9.164;2024-02-14T12:51:17;15.70;76.80
152;DHT22;68;48.792;9.164;2024-02-14T12:53:44;15.90;75.60
152;DHT22;68;48.792;9.164;2024-02-14T12:56:12;15.70;76.00
152;DHT22;68;48.792;9.164;2024-02-14T12:58:39;15.00;78.80
152;DHT22;68;48.792;9.164;2024-02-14T13:01:06;14.80;79.40
152;DHT22;68;48.792;9.164;2024-02-14T13:03:36;15.20;78.90
152;DHT22;68;48.792;9.164;2024-02-14T13:06:03;15.70;76.90
152;DHT22;68;48.792;9.164;2024-02-14T13:08:30;15.60;76.50
152;DHT22;68;48.792;9.164;2024-02-14T13:10:57;15.60;77.20
152;DHT22;68;48.792;9.164;2024-02-14T13:13:25;15.70;76.60
152;DHT22;68;48.792;9.164;2024-02-14T13:15:55;15.70;76.30
152;DHT22;68;48.792;9.164;2024-02-14T13:18:22;15.40;77.50
152;DHT22;68;48.792;9.164;2024-02-14T13:20:48;15.30;78.00
152;DHT22;68;48.792;9.164;2024-02-14T13:23:22;15.40;77.90
152;DHT22;68;48.792;9.164;2024-02-14T13:25:50;15.10;78.60
152;DHT22;68;48.792;9.164;2024-02-14T13:28:17;15.20;78.40
152;DHT22;68;48.792;9.164;2024-02-14T13:30:45;15.00;78.80
152;DHT22;68;48.792;9.164;2024-02-14T13:33:13;14.90;78.90
152;DHT22;68;48.792;9.164;2024-02-14T13:35:39;14.80;79.70
152;DHT22;68;48.792;9.164;2024-02-14T13:38:06;15.10;78.90
152;DHT22;68;48.792;9.164;2024-02-14T13:40:35;15.50;78.10
152;DHT22;68;48.792;9.164;2024-02-14T13:43:02;15.80;77.30
152;DHT22;68;48.792;9.164;2024-02-14T13:45:40;16.10;76.00
152;DHT22;68;48.792;9.164;2024-02-14T13:48:09;16.00;76.60
152;DHT22;68;48.792;9.164;2024-02-14T13:50:36;15.90;76.50
152;DHT22;68;48.792;9.164;2024-02-14T13:53:03;15.90;76.70
152;DHT22;68;48.792;9.164;2024-02-14T13:55:30;15.80;77.60
152;DHT22;68;48.792;9.164;2024-02-14T13:57:57;15.80;77.50
152;DHT22;68;48.792;9.164;2024-02-14T14:00:24;15.50;77.80
152;DHT22;68;48.792;9.164;2024-02-14T14:02:50;15.10;79.50
152;DHT22;68;48.792;9.164;2024-02-14T14:05:19;15.00;80.00
152;DHT22;68;48.792;9.164;2024-02-14T14:07:47;15.10;80.00
152;DHT22;68;48.792;9.164;2024-02-14T14:10:14;15.30;79.80
152;DHT22;68;48.792;9.164;2024-02-14T14:12:41;15.40;79.00
152;DHT22;68;48.792;9.164;2024-02-14T14:15:08;15.50;79.10
152;DHT22;68;48.792;9.164;2024-02-14T14:17:35;15.40;79.00
152;DHT22;68;48.792;9.164;2024-02-14T14:20:03;15.40;79.60
152;DHT22;68;48.792;9.164;2024-02-14T14:22:31;15.10;80.80
152;DHT22;68;48.792;9.164;2024-02-14T14:24:58;15.20;80.70
152;DHT22;68;48.792;9.164;2024-02-14T14:27:25;15.20;80.90
152;DHT22;68;48.792;9.164;2024-02-14T14:29:52;15.20;80.70
152;DHT22;68;48.792;9.164;2024-02-14T14:32:19;15.20;80.70
152;DHT22;68;48.792;9.164;2024-02-14T14:34:46;15.10;81.10
152;DHT22;68;48.792;9.164;2024-02-14T14:37:12;15.00;81.30
152;DHT22;68;48.792;9.164;2024-02-14T14:39:40;15.00;81.30
152;DHT22;68;48.792;9.164;2024-02-14T14:42:09;14.90;81.40
152;DHT22;68;48.792;9.164;2024-02-14T14:44:36;15.00;81.00
152;DHT22;68;48.792;9.164;2024-02-14T14:47:05;14.70;82.30
152;DHT22;68;48.792;9.164;2024-02-14T14:49:33;14.90;81.70
152;DHT22;68;48.792;9.164;2024-02-14T14:52:04;14.70;82.70
152;DHT22;68;48.792;9.164;2024-02-14T14:54:30;14.80;82.10
152;DHT22;68;48.792;9.164;2024-02-14T14:56:58;14.90;81.90
152;DHT22;68;48.792;9.164;2024-02-14T14:59:29;14.90;81.70
152;DHT22;68;48.792;9.164;2024-02-14T15:01:56;15.00;81.50
152;DHT22;68;48.792;9.164;2024-02-14T15:04:23;15.00;81.20
152;DHT22;68;48.792;9.164;2024-02-14T15:06:49;15.10;81.00
152;DHT22;68;48.792;9.164;2024-02-14T15:09:18;14.70;82.90
152;DHT22;68;48.792;9.164;2024-02-14T15:11:45;14.80;82.30
152;DHT22;68;48.792;9.164;2024-02-14T15:14:14;14.70;82.60
152;DHT22;68;48.792;9.164;2024-02-14T15:16:40;14.70;82.50
152;DHT22;68;48.792;9.164;2024-02-14T15:19:07;14.80;82.10
152;DHT22;68;48.792;9.164;2024-02-14T15:21:34;14.80;82.00
152;DHT22;68;48.792;9.164;2024-02-14T15:24:01;14.90;81.50
152;DHT22;68;48.792;9.164;2024-02-14T15:26:29;14.70;82.50
152;DHT22;68;48.792;9.164;2024-02-14T15:29:04;14.70;82.50
152;DHT22;68;48.792;9.164;2024-02-14T15:31:46;14.80;82.00
152;DHT22;68;48.792;9.164;2024-02-14T15:34:30;14.80;82.00
152;DHT22;68;48.792;9.164;2024-02-14T15:36:57;14.80;82.00
152;DHT22;68;48.792;9.164;2024-02-14T15:39:24;14.60;83.10
152;DHT22;68;48.792;9.164;2024-02-14T15:41:51;14.60;83.00
152;DHT22;68;48.792;9.164;2024-02-14T15:44:17;14.60;83.10
152;DHT22;68;48.792;9.164;2024-02-14T15:46:48;14.50;83.30
152;DHT22;68;48.792;9.164;2024-02-14T15:49:14;14.50;83.60
152;DHT22;68;48.792;9.164;2024-02-14T15:51:42;14.70;83.00
152;DHT22;68;48.792;9.164;2024-02-14T15:54:09;14.40;83.70
152;DHT22;68;48.792;9.164;2024-02-14T15:56:36;14.10;85.20
152;DHT22;68;48.792;9.164;2024-02-14T15:59:03;14.20;84.70
152;DHT22;68;48.792;9.164;2024-02-14T16:01:30;14.50;84.10
152;DHT22;68;48.792;9.164;2024-02-14T16:03:58;14.60;83.20
152;DHT22;68;48.792;9.164;2024-02-14T16:06:25;14.40;83.60
152;DHT22;68;48.792;9.164;2024-02-14T16:08:52;14.50;83.40
152;DHT22;68;48.792;9.164;2024-02-14T16:11:19;14.50;83.30
152;DHT22;68;48.792;9.164;2024-02-14T16:13:46;14.40;83.70
152;DHT22;68;48.792;9.164;2024-02-14T16:16:12;14.50;83.50
152;DHT22;68;48.792;9.164;2024-02-14T16:18:39;14.40;83.70
152;DHT22;68;48.792;9.164;2024-02-14T16:21:07;14.20;84.20
152;DHT22;68;48.792;9.164;2024-02-14T16:23:35;14.20;84.00
152;DHT22;68;48.792;9.164;2024-02-14T16:26:01;14.30;83.40
152;DHT22;68;48.792;9.164;2024-02-14T16:28:29;14.40;83.30
152;DHT22;68;48.792;9.164;2024-02-14T16:30:57;14.20;84.40
152;DHT22;68;48.792;9.164;2024-02-14T16:33:23;14.20;83.80
152;DHT22;68;48.792;9.164;2024-02-14T16:35:50;14.30;83.80
152;DHT22;68;48.792;9.164;2024-02-14T16:38:18;14.30;83.40
152;DHT22;68;48.792;9.164;2024-02-14T16:40:45;14.10;84.50
152;DHT22;68;48.792;9.164;2024-02-14T16:43:12;14.30;84.10
152;DHT22;68;48.792;9.164;2024-02-14T16:45:39;14.20;84.40
152;DHT22;68;48.792;9.164;2024-02-14T16:48:07;14.20;84.30
152;DHT22;68;48.792;9.164;2024-02-14T16:50:34;14.40;83.60
152;DHT22;68;48.792;9.164;2024-02-14T16:53:01;14.50;83.60
152;DHT22;68;48.792;9.164;2024-02-14T16:55:29;14.60;82.70
152;DHT22;68;48.792;9.164;2024-02-14T16:57:56;14.40;83.70
152;DHT22;68;48.792;9.164;2024-02-14T17:00:26;14.20;84.70
152;DHT22;68;48.792;9.164;2024-02-14T17:02:53;14.00;85.00